Segou, Mali
Current Conditions -  °F | °C
As of 2:00 AM on Saturday 20 Dec 2014 (Local Time) from GABS Reporting Station
Clear Clear  
Wind Chill: 70°   Ceiling: Unl
Heat Index: 70°   Visibility: 5mi
Dew Point: 32°   Wind: 9mph
Humidity: 25%   Direction: 50°NE
Pressure: 30.06"   Gusts: NA
Location:  13.44°N, 6.26°W
Report Text: GABS 200200Z 05008KT 8000 NSC 21/M00 Q1018 NOSIG
Loading
Personal Weather Stations






























Interactive Weather Map New forecast layout! Learn more

10-Day Weather Forecast

Advertisements
Track Severe Weather on mobile